Terminal Aerodrome Forecast
Issued by NWS

Home | Current Version | Previous Version | Text Only | Print | Product List | Glossary On
Versions: 1 2 3 4 5 6 7 8 9 10 11 12 13 14 15 16 17
000
FTUS45 KPSR 222330
TAFIWA
TAF
KIWA 222330Z 2300/2324 13006KT P6SM BKN100
     FM231200 14012KT P6SM VCSH BKN070 OVC100 PROB30 2312/2318
      17012KT 6SM -SHRA BKN040
     FM231800 19010KT P6SM VCSH OVC050 PROB30 2318/2324 23014KT 5SM
      -RA BKN030
      AMD LTD TO CLD VIS AND WIND 2303/2313=

USA.gov is the U.S. government's official web portal to all federal, state and local government web resources and services.